Rehoboth, Massachusetts
Current Conditions -  °F | °C
As of 7:51 AM on Sunday 21 Dec 2014 (Local Time) from KPVD Reporting Station
Drizzle Drizzle  
Wind Chill: 23°   Ceiling: 700
Heat Index: 32°   Visibility: 3mi
Dew Point: 31°   Wind: 12mph
Humidity: 96%   Direction: 360°N
Pressure: 30.29"   Gusts: NA
Location:  41.84°N, 71.25°W
Report Text: KPVD 211251Z 36010KT 3SM -DZ BR OVC007 00/M01 A3029 RMK AO2 SLP257 P0000 T00001006
Loading
Personal Weather Stations






























Interactive Weather Map New forecast layout! Learn more

10-Day Weather Forecast

Advertisements
Track Severe Weather on mobile